Map

Track Data

SID SEASON NUMBER BASIN SUBBASIN NAME ISO_TIME NATURE LAT LON WMO_WIND WMO_PRES WMO_AGENCY TRACK_TYPE DIST2LAND LANDFALL IFLAG USA_AGENCY USA_ATCF_ID USA_LAT USA_LON USA_RECORD USA_STATUS USA_WIND USA_PRES USA_SSHS USA_R34_NE USA_R34_SE USA_R34_SW USA_R34_NW USA_R50_NE USA_R50_SE USA_R50_SW USA_R50_NW USA_R64_NE USA_R64_SE USA_R64_SW USA_R64_NW USA_POCI USA_ROCI USA_RMW USA_EYE TOKYO_LAT TOKYO_LON TOKYO_GRADE TOKYO_WIND TOKYO_PRES TOKYO_R50_DIR TOKYO_R50_LONG TOKYO_R50_SHORT TOKYO_R30_DIR TOKYO_R30_LONG TOKYO_R30_SHORT TOKYO_LAND CMA_LAT CMA_LON CMA_CAT CMA_WIND CMA_PRES HKO_LAT HKO_LON HKO_CAT HKO_WIND HKO_PRES NEWDELHI_LAT NEWDELHI_LON NEWDELHI_GRADE NEWDELHI_WIND NEWDELHI_PRES NEWDELHI_CI NEWDELHI_DP NEWDELHI_POCI REUNION_LAT REUNION_LON REUNION_TYPE REUNION_WIND REUNION_PRES REUNION_TNUM REUNION_CI REUNION_RMW REUNION_R34_NE REUNION_R34_SE REUNION_R34_SW REUNION_R34_NW REUNION_R50_NE REUNION_R50_SE REUNION_R50_SW REUNION_R50_NW REUNION_R64_NE REUNION_R64_SE REUNION_R64_SW REUNION_R64_NW BOM_LAT BOM_LON BOM_TYPE BOM_WIND BOM_PRES BOM_TNUM BOM_CI BOM_RMW BOM_R34_NE BOM_R34_SE BOM_R34_SW BOM_R34_NW BOM_R50_NE BOM_R50_SE BOM_R50_SW BOM_R50_NW BOM_R64_NE BOM_R64_SE BOM_R64_SW BOM_R64_NW BOM_ROCI BOM_POCI BOM_EYE BOM_POS_METHOD BOM_PRES_METHOD NADI_LAT NADI_LON NADI_CAT NADI_WIND NADI_PRES WELLINGTON_LAT WELLINGTON_LON WELLINGTON_WIND WELLINGTON_PRES DS824_LAT DS824_LON DS824_STAGE DS824_WIND DS824_PRES TD9636_LAT TD9636_LON TD9636_STAGE TD9636_WIND TD9636_PRES TD9635_LAT TD9635_LON TD9635_WIND TD9635_PRES TD9635_ROCI NEUMANN_LAT NEUMANN_LON NEUMANN_CLASS NEUMANN_WIND NEUMANN_PRES MLC_LAT MLC_LON MLC_CLASS MLC_WIND MLC_PRES USA_GUST BOM_GUST BOM_GUST_PER REUNION_GUST REUNION_GUST_PER USA_SEAHGT USA_SEARAD_NE USA_SEARAD_SE USA_SEARAD_SW USA_SEARAD_NW STORM_SPEED STORM_DIR
1987252N11342 1987 74 NA NA DENNIS 1987-09-08 18:00:00 TS 10.8000 -18.4000 25 1012 hurdat_atl main 250 250 O_____________ hurdat_atl AL101987 10.8000 -18.4000 TD 25 1012 -1 11 276
1987252N11342 1987 74 NA NA DENNIS 1987-09-08 21:00:00 TS 10.8602 -18.9399 main 283 283 P_____________ AL101987 10.8602 -18.9399 TD 25 1011 -1 11 275
1987252N11342 1987 74 NA NA DENNIS 1987-09-09 00:00:00 TS 10.9000 -19.5000 25 1011 hurdat_atl main 338 338 O_____________ hurdat_atl AL101987 10.9000 -19.5000 TD 25 1011 -1 11 272
1987252N11342 1987 74 NA NA DENNIS 1987-09-09 03:00:00 TS 10.9074 -20.0925 main 396 396 P_____________ AL101987 10.9074 -20.0925 TD 25 1011 -1 12 270
1987252N11342 1987 74 NA NA DENNIS 1987-09-09 06:00:00 TS 10.9000 -20.7000 25 1011 hurdat_atl main 457 457 O_____________ hurdat_atl AL101987 10.9000 -20.7000 TD 25 1011 -1 12 270
1987252N11342 1987 74 NA NA DENNIS 1987-09-09 09:00:00 TS 10.9074 -21.3075 main 518 518 P_____________ AL101987 10.9074 -21.3075 TD 25 1011 -1 12 270
1987252N11342 1987 74 NA NA DENNIS 1987-09-09 12:00:00 TS 10.9000 -21.9000 25 1011 hurdat_atl main 580 580 O_____________ hurdat_atl AL101987 10.9000 -21.9000 TD 25 1011 -1 12 268
1987252N11342 1987 74 NA NA DENNIS 1987-09-09 15:00:00 TS 10.8575 -22.4950 main 643 643 P_____________ AL101987 10.8575 -22.4950 TD 27 1011 -1 11 265
1987252N11342 1987 74 NA NA DENNIS 1987-09-09 18:00:00 TS 10.8000 -23.0000 30 1011 hurdat_atl main 699 699 O_____________ hurdat_atl AL101987 10.8000 -23.0000 TD 30 1011 -1 8 262
1987252N11342 1987 74 NA NA DENNIS 1987-09-09 21:00:00 TS 10.7423 -23.3300 main 733 733 P_____________ AL101987 10.7423 -23.3300 TD 30 1011 -1 6 260
1987252N11342 1987 74 NA NA DENNIS 1987-09-10 00:00:00 TS 10.7000 -23.6000 30 1011 hurdat_atl main 765 765 O_____________ hurdat_atl AL101987 10.7000 -23.6000 TD 30 1011 -1 6 265
1987252N11342 1987 74 NA NA DENNIS 1987-09-10 03:00:00 TS 10.6850 -23.9425 main 797 797 P_____________ AL101987 10.6850 -23.9425 TD 30 1010 -1 7 270
1987252N11342 1987 74 NA NA DENNIS 1987-09-10 06:00:00 TS 10.7000 -24.3000 30 1009 hurdat_atl main 839 839 O_____________ hurdat_atl AL101987 10.7000 -24.3000 TD 30 1009 -1 7 275
1987252N11342 1987 74 NA NA DENNIS 1987-09-10 09:00:00 TS 10.7425 -24.6500 main 871 871 P_____________ AL101987 10.7425 -24.6500 TD 32 1008 -1 7 278
1987252N11342 1987 74 NA NA DENNIS 1987-09-10 12:00:00 TS 10.8000 -25.0000 35 1008 hurdat_atl main 911 911 O_____________ hurdat_atl AL101987 10.8000 -25.0000 TS 35 1008 0 7 277
1987252N11342 1987 74 NA NA DENNIS 1987-09-10 15:00:00 TS 10.8275 -25.3576 main 954 954 P_____________ AL101987 10.8275 -25.3576 TS 35 1006 0 7 278
1987252N11342 1987 74 NA NA DENNIS 1987-09-10 18:00:00 TS 10.9000 -25.7000 35 1005 hurdat_atl main 984 984 O_____________ hurdat_atl AL101987 10.9000 -25.7000 TS 35 1005 0 7 291
1987252N11342 1987 74 NA NA DENNIS 1987-09-10 21:00:00 TS 11.0699 -26.0000 main 1005 1005 P_____________ AL101987 11.0699 -26.0000 TS 37 1004 0 7 304
1987252N11342 1987 74 NA NA DENNIS 1987-09-11 00:00:00 TS 11.3000 -26.3000 40 1003 hurdat_atl main 1026 1026 O_____________ hurdat_atl AL101987 11.3000 -26.3000 TS 40 1003 0 8 307
1987252N11342 1987 74 NA NA DENNIS 1987-09-11 03:00:00 TS 11.5425 -26.6425 main 1049 1049 P_____________ AL101987 11.5425 -26.6425 TS 40 1002 0 9 306
1987252N11342 1987 74 NA NA DENNIS 1987-09-11 06:00:00 TS 11.8000 -27.0000 40 1002 hurdat_atl main 1078 1078 O_____________ hurdat_atl AL101987 11.8000 -27.0000 TS 40 1002 0 9 307
1987252N11342 1987 74 NA NA DENNIS 1987-09-11 09:00:00 TS 12.0499 -27.3426 main 1102 1102 P_____________ AL101987 12.0499 -27.3426 TS 42 1001 0 9 306
1987252N11342 1987 74 NA NA DENNIS 1987-09-11 12:00:00 TS 12.3000 -27.7000 45 1001 hurdat_atl main 1135 1135 O_____________ hurdat_atl AL101987 12.3000 -27.7000 TS 45 1001 0 9 305
1987252N11342 1987 74 NA NA DENNIS 1987-09-11 15:00:00 TS 12.5574 -28.0776 main 1169 1169 P_____________ AL101987 12.5574 -28.0776 TS 45 1000 0 9 303
1987252N11342 1987 74 NA NA DENNIS 1987-09-11 18:00:00 TS 12.8000 -28.5000 45 1000 hurdat_atl main 1207 1207 O_____________ hurdat_atl AL101987 12.8000 -28.5000 TS 45 1000 0 10 297
1987252N11342 1987 74 NA NA DENNIS 1987-09-11 21:00:00 TS 13.0150 -28.9850 main 1256 1256 P_____________ AL101987 13.0150 -28.9850 TS 45 1000 0 11 292
1987252N11342 1987 74 NA NA DENNIS 1987-09-12 00:00:00 TS 13.2000 -29.5000 45 1000 hurdat_atl main 1306 1306 O_____________ hurdat_atl AL101987 13.2000 -29.5000 TS 45 1000 0 10 289
1987252N11342 1987 74 NA NA DENNIS 1987-09-12 03:00:00 TS 13.3574 -30.0001 main 1356 1356 P_____________ AL101987 13.3574 -30.0001 TS 42 1000 0 10 287
1987252N11342 1987 74 NA NA DENNIS 1987-09-12 06:00:00 TS 13.5000 -30.5000 40 1001 hurdat_atl main 1408 1408 O_____________ hurdat_atl AL101987 13.5000 -30.5000 TS 40 1001 0 10 286
1987252N11342 1987 74 NA NA DENNIS 1987-09-12 09:00:00 TS 13.6424 -31.0001 main 1461 1460 P_____________ AL101987 13.6424 -31.0001 TS 40 1001 0 10 287
1987252N11342 1987 74 NA NA DENNIS 1987-09-12 12:00:00 TS 13.8000 -31.5000 40 1002 hurdat_atl main 1512 1512 O_____________ hurdat_atl AL101987 13.8000 -31.5000 TS 40 1002 0 11 289
1987252N11342 1987 74 NA NA DENNIS 1987-09-12 15:00:00 TS 13.9925 -32.0225 main 1564 1564 P_____________ AL101987 13.9925 -32.0225 TS 37 1003 0 11 292
1987252N11342 1987 74 NA NA DENNIS 1987-09-12 18:00:00 TS 14.2000 -32.5000 35 1004 hurdat_atl main 1616 1616 O_____________ hurdat_atl AL101987 14.2000 -32.5000 TS 35 1004 0 9 296
1987252N11342 1987 74 NA NA DENNIS 1987-09-12 21:00:00 TS 14.3923 -32.8727 main 1658 1658 P_____________ AL101987 14.3923 -32.8727 TS 35 1004 0 8 301
1987252N11342 1987 74 NA NA DENNIS 1987-09-13 00:00:00 TS 14.6000 -33.2000 35 1005 hurdat_atl main 1689 1689 O_____________ hurdat_atl AL101987 14.6000 -33.2000 TS 35 1005 0 8 305
1987252N11342 1987 74 NA NA DENNIS 1987-09-13 03:00:00 TS 14.8499 -33.5500 main 1731 1731 P_____________ AL101987 14.8499 -33.5500 TS 35 1005 0 8 306
1987252N11342 1987 74 NA NA DENNIS 1987-09-13 06:00:00 TS 15.1000 -33.9000 35 1005 hurdat_atl main 1763 1763 O_____________ hurdat_atl AL101987 15.1000 -33.9000 TS 35 1005 0 8 304
1987252N11342 1987 74 NA NA DENNIS 1987-09-13 09:00:00 TS 15.3074 -34.2426 main 1795 1795 P_____________ AL101987 15.3074 -34.2426 TS 35 1005 0 8 301
1987252N11342 1987 74 NA NA DENNIS 1987-09-13 12:00:00 TS 15.5000 -34.6000 35 1005 hurdat_atl main 1838 1838 O_____________ hurdat_atl AL101987 15.5000 -34.6000 TS 35 1005 0 8 300
1987252N11342 1987 74 NA NA DENNIS 1987-09-13 15:00:00 TS 15.6997 -34.9552 main 1881 1881 P_____________ AL101987 15.6997 -34.9552 TS 35 1005 0 9 297
1987252N11342 1987 74 NA NA DENNIS 1987-09-13 18:00:00 TS 15.9000 -35.4000 35 1005 hurdat_atl main 1924 1924 O_____________ hurdat_atl AL101987 15.9000 -35.4000 TS 35 1005 0 11 291
1987252N11342 1987 74 NA NA DENNIS 1987-09-13 21:00:00 TS 16.0927 -36.0201 main 1989 1989 P_____________ AL101987 16.0927 -36.0201 TS 35 1005 0 13 288
1987252N11342 1987 74 NA NA DENNIS 1987-09-14 00:00:00 TS 16.3000 -36.7000 35 1005 hurdat_atl main 2065 2050 O_____________ hurdat_atl AL101987 16.3000 -36.7000 TS 35 1005 0 13 290
1987252N11342 1987 74 NA NA DENNIS 1987-09-14 03:00:00 TS 16.5497 -37.3001 main 2050 2024 P_____________ AL101987 16.5497 -37.3001 TS 35 1005 0 13 293
1987252N11342 1987 74 NA NA DENNIS 1987-09-14 06:00:00 TS 16.8000 -37.9000 35 1005 hurdat_atl main 2024 1993 O_____________ hurdat_atl AL101987 16.8000 -37.9000 TS 35 1005 0 13 291
1987252N11342 1987 74 NA NA DENNIS 1987-09-14 09:00:00 TS 16.9999 -38.5428 main 1993 1956 P_____________ AL101987 16.9999 -38.5428 TS 35 1005 0 13 288
1987252N11342 1987 74 NA NA DENNIS 1987-09-14 12:00:00 TS 17.2000 -39.2000 35 1005 hurdat_atl main 1956 1929 O_____________ hurdat_atl AL101987 17.2000 -39.2000 TS 35 1005 0 14 290
1987252N11342 1987 74 NA NA DENNIS 1987-09-14 15:00:00 TS 17.4725 -39.8722 main 1931 1906 P_____________ AL101987 17.4725 -39.8722 TS 35 1005 0 13 292
1987252N11342 1987 74 NA NA DENNIS 1987-09-14 18:00:00 TS 17.7000 -40.5000 35 1005 hurdat_atl main 1906 1882 O_____________ hurdat_atl AL101987 17.7000 -40.5000 TS 35 1005 0 11 286
1987252N11342 1987 74 NA NA DENNIS 1987-09-14 21:00:00 TS 17.7872 -41.0303 main 1882 1850 P_____________ AL101987 17.7872 -41.0303 TS 35 1005 0 10 276
1987252N11342 1987 74 NA NA DENNIS 1987-09-15 00:00:00 TS 17.8000 -41.5000 35 1005 hurdat_atl main 1850 1825 O_____________ hurdat_atl AL101987 17.8000 -41.5000 TS 35 1005 0 9 272
1987252N11342 1987 74 NA NA DENNIS 1987-09-15 03:00:00 TS 17.8148 -41.9500 main 1825 1795 P_____________ AL101987 17.8148 -41.9500 TS 35 1005 0 9 270
1987252N11342 1987 74 NA NA DENNIS 1987-09-15 06:00:00 TS 17.8000 -42.4000 35 1005 hurdat_atl main 1795 1761 O_____________ hurdat_atl AL101987 17.8000 -42.4000 TS 35 1005 0 9 266
1987252N11342 1987 74 NA NA DENNIS 1987-09-15 09:00:00 TS 17.7574 -42.8925 main 1761 1720 P_____________ AL101987 17.7574 -42.8925 TS 35 1005 0 10 264
1987252N11342 1987 74 NA NA DENNIS 1987-09-15 12:00:00 TS 17.7000 -43.4000 35 1005 hurdat_atl main 1720 1689 O_____________ hurdat_atl AL101987 17.7000 -43.4000 TS 35 1005 0 10 264
1987252N11342 1987 74 NA NA DENNIS 1987-09-15 15:00:00 TS 17.6500 -43.9225 main 1689 1650 P_____________ AL101987 17.6500 -43.9225 TS 35 1005 0 10 264
1987252N11342 1987 74 NA NA DENNIS 1987-09-15 18:00:00 TS 17.6000 -44.4000 35 1005 hurdat_atl main 1650 1618 O_____________ hurdat_atl AL101987 17.6000 -44.4000 TS 35 1005 0 8 262
1987252N11342 1987 74 NA NA DENNIS 1987-09-15 21:00:00 TS 17.5423 -44.7800 main 1618 1601 P_____________ AL101987 17.5423 -44.7800 TS 35 1005 0 7 261
1987252N11342 1987 74 NA NA DENNIS 1987-09-16 00:00:00 TS 17.5000 -45.1000 35 1005 hurdat_atl main 1601 1584 O_____________ hurdat_atl AL101987 17.5000 -45.1000 TS 35 1005 0 6 265
1987252N11342 1987 74 NA NA DENNIS 1987-09-16 03:00:00 TS 17.4849 -45.4075 main 1584 1568 P_____________ AL101987 17.4849 -45.4075 TS 35 1005 0 6 270
1987252N11342 1987 74 NA NA DENNIS 1987-09-16 06:00:00 TS 17.5000 -45.7000 35 1005 hurdat_atl main 1568 1553 O_____________ hurdat_atl AL101987 17.5000 -45.7000 TS 35 1005 0 6 277
1987252N11342 1987 74 NA NA DENNIS 1987-09-16 09:00:00 TS 17.5500 -45.9999 main 1553 1548 P_____________ AL101987 17.5500 -45.9999 TS 35 1005 0 6 280
1987252N11342 1987 74 NA NA DENNIS 1987-09-16 12:00:00 TS 17.6000 -46.3000 35 1005 hurdat_atl main 1548 1533 O_____________ hurdat_atl AL101987 17.6000 -46.3000 TS 35 1005 0 6 275
1987252N11342 1987 74 NA NA DENNIS 1987-09-16 15:00:00 TS 17.5999 -46.5851 main 1533 1519 P_____________ AL101987 17.5999 -46.5851 TS 35 1005 0 6 270
1987252N11342 1987 74 NA NA DENNIS 1987-09-16 18:00:00 TS 17.6000 -46.9000 35 1005 hurdat_atl main 1519 1501 O_____________ hurdat_atl AL101987 17.6000 -46.9000 TS 35 1005 0 7 274
1987252N11342 1987 74 NA NA DENNIS 1987-09-16 21:00:00 TS 17.6425 -47.2925 main 1501 1495 P_____________ AL101987 17.6425 -47.2925 TS 35 1005 0 8 277
1987252N11342 1987 74 NA NA DENNIS 1987-09-17 00:00:00 TS 17.7000 -47.7000 35 1005 hurdat_atl main 1495 1483 O_____________ hurdat_atl AL101987 17.7000 -47.7000 TS 35 1005 0 7 279
1987252N11342 1987 74 NA NA DENNIS 1987-09-17 03:00:00 TS 17.7574 -48.0575 main 1488 1474 P_____________ AL101987 17.7574 -48.0575 TS 35 1005 0 7 279
1987252N11342 1987 74 NA NA DENNIS 1987-09-17 06:00:00 TS 17.8000 -48.4000 35 1005 hurdat_atl main 1474 1460 O_____________ hurdat_atl AL101987 17.8000 -48.4000 TS 35 1005 0 7 274
1987252N11342 1987 74 NA NA DENNIS 1987-09-17 09:00:00 TS 17.7999 -48.7426 main 1460 1443 P_____________ AL101987 17.7999 -48.7426 TS 35 1005 0 7 270
1987252N11342 1987 74 NA NA DENNIS 1987-09-17 12:00:00 TS 17.8000 -49.1000 35 1006 hurdat_atl main 1443 1431 O_____________ hurdat_atl AL101987 17.8000 -49.1000 TS 35 1006 0 7 273
1987252N11342 1987 74 NA NA DENNIS 1987-09-17 15:00:00 TS 17.8347 -49.4626 main 1427 1422 P_____________ AL101987 17.8347 -49.4626 TS 35 1006 0 8 277
1987252N11342 1987 74 NA NA DENNIS 1987-09-17 18:00:00 TS 17.9000 -49.9000 35 1006 hurdat_atl main 1422 1395 O_____________ hurdat_atl AL101987 17.9000 -49.9000 TS 35 1006 0 10 278
1987252N11342 1987 74 NA NA DENNIS 1987-09-17 21:00:00 TS 17.9777 -50.4851 main 1395 1349 P_____________ AL101987 17.9777 -50.4851 TS 32 1006 -1 12 280
1987252N11342 1987 74 NA NA DENNIS 1987-09-18 00:00:00 TS 18.1000 -51.1000 30 1007 hurdat_atl main 1349 1307 O_____________ hurdat_atl AL101987 18.1000 -51.1000 TD 30 1007 -1 11 279
1987252N11342 1987 74 NA NA DENNIS 1987-09-18 03:00:00 TS 18.1424 -51.6237 main 1307 1289 P_____________ AL101987 18.1424 -51.6237 TD 30 1008 -1 10 293
1987252N11342 1987 74 NA NA DENNIS 1987-09-18 06:00:00 TS 18.5000 -52.1000 30 1009 hurdat_atl main 1295 1295 O_____________ hurdat_atl AL101987 18.5000 -52.1000 TD 30 1009 -1 16 327
1987252N11342 1987 74 NA NA DENNIS 1987-09-18 09:00:00 TS 19.5000 -52.5645 main 1334 1334 P_____________ AL101987 19.5000 -52.5645 TD 30 1009 -1 25 340
1987252N11342 1987 74 NA NA DENNIS 1987-09-18 12:00:00 TS 20.8000 -53.0000 30 1010 hurdat_atl main 1346 1334 O_____________ hurdat_atl AL101987 20.8000 -53.0000 TD 30 1010 -1 27 343
1987252N11342 1987 74 NA NA DENNIS 1987-09-18 15:00:00 TS 22.0746 -53.3928 main 1337 1333 P_____________ AL101987 22.0746 -53.3928 TD 30 1010 -1 25 343
1987252N11342 1987 74 NA NA DENNIS 1987-09-18 18:00:00 TS 23.2000 -53.8000 30 1011 hurdat_atl main 1337 1322 O_____________ hurdat_atl AL101987 23.2000 -53.8000 TD 30 1011 -1 21 336
1987252N11342 1987 74 NA NA DENNIS 1987-09-18 21:00:00 TS 23.9399 -54.2933 main 1322 1306 P_____________ AL101987 23.9399 -54.2933 TD 30 1011 -1 16 325
1987252N11342 1987 74 NA NA DENNIS 1987-09-19 00:00:00 TS 24.5000 -54.8000 30 1012 hurdat_atl main 1308 1301 O_____________ hurdat_atl AL101987 24.5000 -54.8000 TD 30 1012 -1 15 323
1987252N11342 1987 74 NA NA DENNIS 1987-09-19 03:00:00 TS 25.0996 -55.2435 main 1308 1299 P_____________ AL101987 25.0996 -55.2435 TD 30 1012 -1 15 326
1987252N11342 1987 74 NA NA DENNIS 1987-09-19 06:00:00 TS 25.7000 -55.7000 30 1012 hurdat_atl main 1305 1300 O_____________ hurdat_atl AL101987 25.7000 -55.7000 TD 30 1012 -1 15 323
1987252N11342 1987 74 NA NA DENNIS 1987-09-19 09:00:00 TS 26.3278 -56.2723 main 1300 1300 P_____________ AL101987 26.3278 -56.2723 TD 27 1012 -1 16 323
1987252N11342 1987 74 NA NA DENNIS 1987-09-19 12:00:00 TS 27.0000 -56.8000 25 1012 hurdat_atl main 1317 1317 O_____________ hurdat_atl AL101987 27.0000 -56.8000 TD 25 1012 -1 17 327
1987252N11342 1987 74 NA NA DENNIS 1987-09-19 15:00:00 TS 27.7194 -57.2850 main 1341 1341 P_____________ AL101987 27.7194 -57.2850 TD 25 1012 -1 16 341
1987252N11342 1987 74 NA NA DENNIS 1987-09-19 18:00:00 TS 28.5000 -57.4000 25 1012 hurdat_atl main 1403 1403 O_____________ hurdat_atl AL101987 28.5000 -57.4000 TD 25 1012 -1 17 12
1987252N11342 1987 74 NA NA DENNIS 1987-09-19 21:00:00 TS 29.3799 -56.8975 main 1512 1512 P_____________ AL101987 29.3799 -56.8975 TD 25 1012 -1 21 36
1987252N11342 1987 74 NA NA DENNIS 1987-09-20 00:00:00 TS 30.2000 -56.0000 25 1012 hurdat_atl main 1636 1636 O_____________ hurdat_atl AL101987 30.2000 -56.0000 TD 25 1012 -1 21 48
1987252N11342 1987 74 NA NA DENNIS 1987-09-20 03:00:00 TS 30.8171 -55.0664 main 1674 1661 P_____________ AL101987 30.8171 -55.0664 TD 25 1012 -1 20 57
1987252N11342 1987 74 NA NA DENNIS 1987-09-20 06:00:00 TS 31.3000 -54.0000 25 1012 hurdat_atl main 1664 1653 O_____________ hurdat_atl AL101987 31.3000 -54.0000 TD 25 1012 -1 21 64
1987252N11342 1987 74 NA NA DENNIS 1987-09-20 09:00:00 TS 31.7297 -52.8639 main 1658 1618 P_____________ AL101987 31.7297 -52.8639 TD 25 1012 -1 21 68
1987252N11342 1987 74 NA NA DENNIS 1987-09-20 12:00:00 TS 32.1000 -51.7000 25 1012 hurdat_atl main 1619 1592 O_____________ hurdat_atl AL101987 32.1000 -51.7000 TD 25 1012 -1 21 69
1987252N11342 1987 74 NA NA DENNIS 1987-09-20 15:00:00 TS 32.4539 -50.5842 main 1584 1565 P_____________ AL101987 32.4539 -50.5842 TD 25 1012 -1 20 69
1987252N11342 1987 74 NA NA DENNIS 1987-09-20 18:00:00 ET 32.8000 -49.5000 25 1012 hurdat_atl main 1567 O_____________ hurdat_atl AL101987 32.8000 -49.5000 EX 25 1012 -4 20 69

About IBTrACS Database

This database is a web-friendly format of International Best Track Archive for Climate Stewardship (IBTrACS), a global best track data archive curated by NOAA dating back to 1842.

Updated: 2021-10-08